Time;durP1;ratioP1;P1;durP2;ratioP2;P2;SDS_P1;SDS_P2;PMS_P1;PMS_P2;Temp;Humidity;BMP_temperature;BMP_pressure;BME280_temperature;BME280_humidity;BME280_pressure;Samples;Min_cycle;Max_cycle;Signal;HPM_P1;HPM_P2
2021/12/18 00:00:16;;;;;;;8.88;5.47;;;;;;;;;;5027467;28;20087;-80
2021/12/18 00:02:42;;;;;;;9.57;4.70;;;;;;;;;;5022788;28;20037;-80
2021/12/18 00:05:08;;;;;;;10.90;5.53;;;;;;;;;;5022341;28;20399;-80
2021/12/18 00:07:35;;;;;;;9.75;5.00;;;;;;;;;;5026104;28;20041;-81
2021/12/18 00:10:02;;;;;;;9.43;4.88;;;;;;;;;;5015754;28;20518;-81
2021/12/18 00:12:28;;;;;;;9.35;4.80;;;;;;;;;;5014794;28;20384;-80
2021/12/18 00:14:54;;;;;;;9.48;4.80;;;;;;;;;;5018252;28;20026;-80
2021/12/18 00:17:20;;;;;;;9.43;5.18;;;;;;;;;;5027685;28;20040;-81
2021/12/18 00:19:46;;;;;;;9.43;4.97;;;;;;;;;;5023324;28;20104;-81
2021/12/18 00:22:12;;;;;;;9.30;5.07;;;;;;;;;;5033891;28;20116;-80
2021/12/18 00:24:38;;;;;;;11.68;5.97;;;;;;;;;;5035408;28;20060;-80
2021/12/18 00:27:04;;;;;;;10.85;5.38;;;;;;;;;;5034374;28;20142;-81
2021/12/18 00:29:30;;;;;;;10.23;5.43;;;;;;;;;;5016001;28;20097;-80
2021/12/18 00:31:57;;;;;;;11.23;5.47;;;;;;;;;;5016625;28;20022;-80
2021/12/18 00:34:23;;;;;;;10.70;5.78;;;;;;;;;;5027082;28;20468;-80
2021/12/18 00:36:50;;;;;;;9.52;5.43;;;;;;;;;;5014590;28;20465;-79
2021/12/18 00:39:17;;;;;;;10.32;5.20;;;;;;;;;;5027062;28;20025;-81
2021/12/18 00:44:13;;;;;;;8.63;5.15;;;;;;;;;;5035152;28;20128;-80
2021/12/18 00:46:43;;;;;;;11.10;5.43;;;;;;;;;;5033347;28;20054;-81
2021/12/18 00:49:10;;;;;;;11.48;5.80;;;;;;;;;;5018567;28;20037;-81
2021/12/18 00:51:36;;;;;;;11.05;5.75;;;;;;;;;;5025191;28;20034;-81
2021/12/18 00:54:03;;;;;;;12.57;5.50;;;;;;;;;;5028165;28;20033;-80
2021/12/18 00:56:29;;;;;;;10.88;5.35;;;;;;;;;;5026424;28;20105;-79
2021/12/18 00:58:55;;;;;;;9.60;5.22;;;;;;;;;;5027386;28;20029;-81
2021/12/18 01:01:22;;;;;;;10.10;5.40;;;;;;;;;;5028478;28;20034;-80
2021/12/18 01:03:49;;;;;;;12.82;5.72;;;;;;;;;;5039469;28;20037;-80
2021/12/18 01:06:15;;;;;;;9.55;5.00;;;;;;;;;;5020867;28;20034;-81
2021/12/18 01:08:42;;;;;;;9.77;5.13;;;;;;;;;;5017161;28;20053;-80
2021/12/18 01:14:15;;;;;;;13.27;5.68;;;;;;;;;;5010639;28;20041;-82
2021/12/18 01:24:43;;;;;;;11.30;5.35;;;;;;;;;;5018976;28;20118;-81
2021/12/18 01:27:09;;;;;;;10.18;5.47;;;;;;;;;;5017263;28;20076;-81
2021/12/18 01:29:35;;;;;;;11.57;5.28;;;;;;;;;;5016275;28;20053;-81
2021/12/18 01:32:01;;;;;;;12.10;5.60;;;;;;;;;;5035735;28;20028;-81
2021/12/18 01:34:27;;;;;;;11.18;5.45;;;;;;;;;;5027018;28;20021;-81
2021/12/18 01:36:53;;;;;;;12.38;5.80;;;;;;;;;;5029838;28;20400;-81
2021/12/18 01:39:19;;;;;;;10.90;5.47;;;;;;;;;;5017738;28;20022;-80
2021/12/18 01:47:07;;;;;;;10.35;5.65;;;;;;;;;;5018182;28;20022;-80
2021/12/18 01:52:23;;;;;;;10.18;5.40;;;;;;;;;;5024150;28;20041;-81
2021/12/18 01:54:49;;;;;;;10.43;6.60;;;;;;;;;;5034274;28;20104;-80
2021/12/18 01:57:15;;;;;;;10.25;4.82;;;;;;;;;;5023134;28;20070;-80
2021/12/18 01:59:47;;;;;;;10.45;5.80;;;;;;;;;;5024081;28;20081;-81
2021/12/18 02:02:14;;;;;;;12.70;5.60;;;;;;;;;;5035925;28;20037;-80
2021/12/18 02:04:40;;;;;;;11.52;5.45;;;;;;;;;;5017032;28;20033;-80
2021/12/18 02:07:07;;;;;;;12.05;6.00;;;;;;;;;;5017041;28;20026;-81
2021/12/18 02:12:20;;;;;;;14.50;6.00;;;;;;;;;;5036103;28;20027;-80
2021/12/18 02:22:55;;;;;;;11.07;5.75;;;;;;;;;;5034720;28;20048;-80
2021/12/18 02:25:23;;;;;;;11.32;5.53;;;;;;;;;;5016968;28;20026;-80
2021/12/18 02:27:51;;;;;;;11.00;6.10;;;;;;;;;;5017381;28;20049;-81
2021/12/18 02:30:20;;;;;;;9.43;5.15;;;;;;;;;;5025457;28;20041;-80
2021/12/18 02:32:46;;;;;;;10.73;6.05;;;;;;;;;;5019927;28;20467;-81
2021/12/18 02:35:23;;;;;;;15.32;7.20;;;;;;;;;;5019270;28;20021;-81
2021/12/18 02:37:49;;;;;;;10.88;6.47;;;;;;;;;;5020226;28;20030;-81
2021/12/18 02:42:59;;;;;;;12.18;5.72;;;;;;;;;;5017301;28;20041;-80
2021/12/18 02:45:25;;;;;;;10.50;5.63;;;;;;;;;;5030036;28;20025;-80
2021/12/18 02:47:53;;;;;;;11.48;6.05;;;;;;;;;;5032871;28;20120;-80
2021/12/18 02:50:19;;;;;;;9.13;4.95;;;;;;;;;;5033396;28;20156;-80
2021/12/18 02:52:45;;;;;;;11.63;5.47;;;;;;;;;;5036559;28;20100;-81
2021/12/18 02:55:12;;;;;;;11.85;5.95;;;;;;;;;;5035427;28;20053;-81
2021/12/18 02:57:38;;;;;;;11.82;6.38;;;;;;;;;;5026982;28;20030;-80
2021/12/18 03:00:04;;;;;;;12.85;5.53;;;;;;;;;;5019425;28;20076;-80
2021/12/18 03:02:36;;;;;;;13.38;6.15;;;;;;;;;;5014574;28;20050;-80
2021/12/18 03:05:06;;;;;;;11.90;5.45;;;;;;;;;;5029265;28;20029;-80
2021/12/18 03:07:32;;;;;;;12.02;5.57;;;;;;;;;;5023295;28;20037;-80
2021/12/18 03:25:56;;;;;;;12.85;6.05;;;;;;;;;;5016111;28;20045;-81
2021/12/18 03:28:22;;;;;;;10.93;5.40;;;;;;;;;;5026067;28;20041;-81
2021/12/18 03:30:48;;;;;;;9.60;5.28;;;;;;;;;;5029756;28;20467;-81
2021/12/18 03:33:14;;;;;;;10.40;5.22;;;;;;;;;;5026975;28;20034;-80
2021/12/18 03:35:40;;;;;;;9.65;4.90;;;;;;;;;;5014313;28;20022;-80
2021/12/18 03:38:09;;;;;;;11.10;5.30;;;;;;;;;;5025260;28;20475;-81
2021/12/18 03:40:35;;;;;;;10.20;5.28;;;;;;;;;;5015878;28;20046;-81
2021/12/18 03:43:01;;;;;;;12.48;5.88;;;;;;;;;;5024219;28;20017;-80
2021/12/18 03:45:27;;;;;;;11.52;4.75;;;;;;;;;;5028533;28;20033;-80
2021/12/18 03:47:53;;;;;;;11.02;6.30;;;;;;;;;;5023630;28;20378;-81
2021/12/18 03:50:20;;;;;;;11.15;5.65;;;;;;;;;;5017059;28;20030;-81
2021/12/18 03:52:46;;;;;;;10.45;5.43;;;;;;;;;;5015899;28;20092;-81
2021/12/18 03:55:13;;;;;;;11.48;5.78;;;;;;;;;;5017942;28;20066;-80
2021/12/18 03:57:39;;;;;;;10.18;4.97;;;;;;;;;;5033354;28;20470;-80
2021/12/18 04:00:07;;;;;;;13.55;5.72;;;;;;;;;;5022833;28;20032;-81
2021/12/18 04:02:33;;;;;;;10.95;5.47;;;;;;;;;;5021599;28;20045;-80
2021/12/18 04:04:59;;;;;;;12.68;6.13;;;;;;;;;;5032704;28;20053;-80
2021/12/18 04:07:25;;;;;;;11.60;5.70;;;;;;;;;;5019431;28;20057;-81
2021/12/18 04:09:51;;;;;;;11.05;5.53;;;;;;;;;;5013570;28;20041;-80
2021/12/18 04:12:17;;;;;;;10.60;6.35;;;;;;;;;;5015896;28;20029;-80
2021/12/18 04:14:43;;;;;;;10.52;5.60;;;;;;;;;;5018587;28;20026;-81
2021/12/18 04:17:09;;;;;;;11.85;5.15;;;;;;;;;;5017866;28;20125;-80
2021/12/18 04:19:36;;;;;;;9.98;5.35;;;;;;;;;;5016038;28;20476;-80
2021/12/18 04:22:02;;;;;;;11.52;5.20;;;;;;;;;;5017585;28;20029;-81
2021/12/18 04:24:28;;;;;;;13.05;5.75;;;;;;;;;;5016071;28;20030;-80
2021/12/18 04:26:54;;;;;;;9.27;5.10;;;;;;;;;;5010396;28;20030;-80
2021/12/18 04:29:20;;;;;;;9.35;4.55;;;;;;;;;;5018123;28;20022;-81
2021/12/18 04:31:46;;;;;;;9.43;5.10;;;;;;;;;;5022209;28;20036;-80
2021/12/18 04:34:12;;;;;;;11.50;5.47;;;;;;;;;;5017683;28;20064;-80
2021/12/18 04:36:38;;;;;;;11.05;5.10;;;;;;;;;;5019332;28;20034;-81
2021/12/18 04:39:05;;;;;;;12.52;5.28;;;;;;;;;;5018593;28;20026;-81
2021/12/18 04:41:49;;;;;;;12.25;5.25;;;;;;;;;;5019842;28;20030;-81
2021/12/18 04:44:15;;;;;;;10.30;5.65;;;;;;;;;;5017459;28;20029;-81
2021/12/18 04:46:41;;;;;;;10.57;5.10;;;;;;;;;;5019236;28;20516;-81
2021/12/18 04:49:07;;;;;;;12.77;6.05;;;;;;;;;;5019403;28;20030;-81
2021/12/18 04:51:33;;;;;;;11.05;5.65;;;;;;;;;;5018573;28;20038;-81
2021/12/18 04:54:00;;;;;;;10.18;5.15;;;;;;;;;;5018782;28;20022;-80
2021/12/18 04:56:26;;;;;;;11.55;5.47;;;;;;;;;;5019215;28;20083;-80
2021/12/18 04:58:52;;;;;;;10.35;4.80;;;;;;;;;;5016765;28;20022;-79
2021/12/18 05:01:18;;;;;;;11.98;5.90;;;;;;;;;;5019218;28;20113;-78
2021/12/18 05:03:45;;;;;;;10.88;5.28;;;;;;;;;;5015082;28;20049;-77
2021/12/18 05:06:11;;;;;;;11.25;5.40;;;;;;;;;;5014759;28;20037;-78
2021/12/18 05:08:38;;;;;;;9.63;5.20;;;;;;;;;;5015650;28;20037;-78
2021/12/18 05:11:04;;;;;;;9.60;5.70;;;;;;;;;;5016945;28;20041;-78
2021/12/18 05:13:30;;;;;;;11.75;5.28;;;;;;;;;;5016904;28;20022;-79
2021/12/18 05:15:56;;;;;;;10.55;5.40;;;;;;;;;;5015432;28;20395;-78
2021/12/18 05:18:22;;;;;;;12.95;5.90;;;;;;;;;;5015454;28;20498;-79
2021/12/18 05:20:48;;;;;;;11.40;5.70;;;;;;;;;;5015865;28;20492;-80
2021/12/18 05:23:14;;;;;;;10.30;6.18;;;;;;;;;;5015545;28;20081;-79
2021/12/18 05:25:40;;;;;;;12.68;6.13;;;;;;;;;;5015685;28;20472;-80
2021/12/18 05:28:06;;;;;;;10.93;5.55;;;;;;;;;;5015517;28;20022;-79
2021/12/18 05:30:32;;;;;;;11.98;5.68;;;;;;;;;;5014974;28;20061;-80
2021/12/18 05:32:58;;;;;;;11.95;5.10;;;;;;;;;;5013637;28;20439;-79
2021/12/18 05:35:24;;;;;;;13.02;5.93;;;;;;;;;;5016145;28;20025;-80
2021/12/18 05:37:53;;;;;;;9.88;5.00;;;;;;;;;;5013917;28;20026;-79
2021/12/18 05:40:20;;;;;;;12.52;5.78;;;;;;;;;;5021634;28;20124;-80
2021/12/18 05:42:47;;;;;;;9.73;5.70;;;;;;;;;;5024838;28;20032;-80
2021/12/18 05:45:13;;;;;;;10.60;5.60;;;;;;;;;;5022819;28;20026;-80
2021/12/18 05:47:39;;;;;;;12.73;6.35;;;;;;;;;;5014958;28;20029;-79
2021/12/18 05:50:07;;;;;;;11.35;6.53;;;;;;;;;;5015567;28;20041;-79
2021/12/18 05:52:33;;;;;;;14.77;7.07;;;;;;;;;;5018092;28;20022;-78
2021/12/18 05:54:59;;;;;;;14.80;6.85;;;;;;;;;;5024178;28;20026;-78
2021/12/18 05:57:25;;;;;;;12.82;7.43;;;;;;;;;;5017766;28;20064;-78
2021/12/18 05:59:51;;;;;;;14.73;7.07;;;;;;;;;;5015090;28;20027;-78
2021/12/18 06:02:17;;;;;;;14.68;7.80;;;;;;;;;;5018724;28;20034;-78
2021/12/18 06:04:44;;;;;;;14.27;7.45;;;;;;;;;;5016587;28;20037;-80
2021/12/18 06:07:17;;;;;;;11.93;7.07;;;;;;;;;;5014379;28;20009;-79
2021/12/18 06:09:43;;;;;;;14.20;7.70;;;;;;;;;;5008504;28;20014;-80
2021/12/18 06:12:10;;;;;;;12.32;6.78;;;;;;;;;;5022192;28;20029;-78
2021/12/18 06:14:36;;;;;;;16.83;9.10;;;;;;;;;;5018385;28;20496;-79
2021/12/18 06:17:02;;;;;;;15.32;8.05;;;;;;;;;;5026521;28;20034;-79
2021/12/18 06:19:29;;;;;;;13.65;7.57;;;;;;;;;;5023253;28;20103;-79
2021/12/18 06:21:55;;;;;;;11.20;7.00;;;;;;;;;;5013325;28;20164;-79
2021/12/18 06:24:21;;;;;;;16.15;7.40;;;;;;;;;;5025357;28;20053;-78
2021/12/18 06:26:47;;;;;;;13.20;7.32;;;;;;;;;;5022600;28;20087;-78
2021/12/18 06:29:13;;;;;;;15.20;8.65;;;;;;;;;;5018556;28;20472;-79
2021/12/18 06:31:39;;;;;;;21.60;13.07;;;;;;;;;;5012277;28;20033;-79
2021/12/18 06:34:06;;;;;;;21.80;12.55;;;;;;;;;;5014440;28;20106;-79
2021/12/18 06:36:32;;;;;;;21.83;13.38;;;;;;;;;;5014436;28;20028;-79
2021/12/18 06:38:58;;;;;;;24.67;14.45;;;;;;;;;;5016125;28;20037;-79
2021/12/18 06:41:24;;;;;;;20.45;13.35;;;;;;;;;;5024316;28;20041;-79
2021/12/18 06:43:50;;;;;;;27.83;14.85;;;;;;;;;;5031071;28;20087;-78
2021/12/18 06:46:16;;;;;;;25.42;15.10;;;;;;;;;;5033550;28;20029;-79
2021/12/18 06:48:43;;;;;;;22.67;13.88;;;;;;;;;;5033475;28;20439;-79
2021/12/18 06:51:09;;;;;;;26.45;14.52;;;;;;;;;;5034463;28;20029;-79
2021/12/18 06:53:35;;;;;;;25.30;14.02;;;;;;;;;;5019093;28;20029;-79
2021/12/18 06:56:03;;;;;;;23.88;14.23;;;;;;;;;;5017841;28;20022;-79
2021/12/18 06:58:29;;;;;;;23.48;13.50;;;;;;;;;;5021444;28;20018;-80
2021/12/18 07:00:55;;;;;;;18.98;12.57;;;;;;;;;;5009067;28;20034;-78
2021/12/18 07:03:21;;;;;;;22.23;13.52;;;;;;;;;;5013703;28;20025;-78
2021/12/18 07:05:48;;;;;;;20.98;13.25;;;;;;;;;;5027478;28;20072;-78
2021/12/18 07:08:14;;;;;;;23.00;13.30;;;;;;;;;;5022089;28;20045;-79
2021/12/18 07:10:40;;;;;;;22.13;12.55;;;;;;;;;;5013227;28;20138;-78
2021/12/18 07:13:06;;;;;;;21.55;13.25;;;;;;;;;;5013168;28;20049;-78
2021/12/18 07:15:33;;;;;;;22.88;12.80;;;;;;;;;;5013156;28;20391;-78
2021/12/18 07:18:00;;;;;;;21.75;12.43;;;;;;;;;;5015552;28;20017;-79
2021/12/18 07:20:27;;;;;;;20.73;12.13;;;;;;;;;;5014572;28;20030;-78
2021/12/18 07:22:54;;;;;;;20.13;12.43;;;;;;;;;;5012446;28;20075;-78
2021/12/18 07:25:20;;;;;;;21.63;12.20;;;;;;;;;;5016464;28;20020;-79
2021/12/18 07:27:46;;;;;;;19.55;12.35;;;;;;;;;;5018022;28;20041;-78
2021/12/18 07:30:15;;;;;;;20.90;12.85;;;;;;;;;;5001990;28;20049;-79
2021/12/18 07:32:43;;;;;;;19.92;11.57;;;;;;;;;;5013352;28;20503;-79
2021/12/18 07:35:09;;;;;;;19.83;11.85;;;;;;;;;;5014848;28;20026;-79
2021/12/18 07:37:35;;;;;;;19.25;10.85;;;;;;;;;;5018643;28;20068;-79
2021/12/18 07:40:01;;;;;;;20.38;11.20;;;;;;;;;;5028983;28;20501;-78
2021/12/18 07:42:27;;;;;;;20.67;11.68;;;;;;;;;;5011634;28;20495;-79
2021/12/18 07:44:53;;;;;;;19.13;11.98;;;;;;;;;;5014085;28;20030;-79
2021/12/18 07:47:20;;;;;;;19.38;10.48;;;;;;;;;;5011044;28;20021;-79
2021/12/18 07:49:47;;;;;;;19.08;11.55;;;;;;;;;;5014240;28;20038;-79
2021/12/18 07:52:13;;;;;;;20.35;11.30;;;;;;;;;;5015989;28;20022;-79
2021/12/18 07:54:39;;;;;;;19.55;10.63;;;;;;;;;;5035652;28;20029;-79
2021/12/18 07:57:05;;;;;;;20.75;11.38;;;;;;;;;;5037997;28;20029;-79
2021/12/18 07:59:31;;;;;;;17.85;11.07;;;;;;;;;;5036085;28;20037;-80
2021/12/18 08:01:57;;;;;;;18.90;11.07;;;;;;;;;;5036546;28;20144;-79
2021/12/18 08:04:23;;;;;;;19.48;12.10;;;;;;;;;;5016301;28;20439;-79
2021/12/18 08:06:49;;;;;;;19.67;11.05;;;;;;;;;;5017770;28;20037;-79
2021/12/18 08:09:16;;;;;;;19.40;11.23;;;;;;;;;;5027227;28;20037;-80
2021/12/18 08:11:42;;;;;;;22.95;11.10;;;;;;;;;;5036983;28;20478;-78
2021/12/18 08:14:08;;;;;;;21.27;12.23;;;;;;;;;;5031243;28;20028;-80
2021/12/18 08:16:34;;;;;;;18.73;10.95;;;;;;;;;;5036583;28;20536;-79
2021/12/18 08:19:00;;;;;;;18.50;10.30;;;;;;;;;;5031326;28;20029;-79
2021/12/18 08:21:26;;;;;;;18.67;10.60;;;;;;;;;;5027552;28;20026;-79
2021/12/18 08:23:52;;;;;;;20.30;11.50;;;;;;;;;;5023457;28;20033;-79
2021/12/18 08:26:18;;;;;;;18.35;10.75;;;;;;;;;;5017500;28;20026;-79
2021/12/18 08:28:44;;;;;;;22.67;11.80;;;;;;;;;;5020126;28;20087;-79
2021/12/18 08:31:11;;;;;;;20.02;11.30;;;;;;;;;;5022590;28;20029;-80
2021/12/18 08:33:37;;;;;;;20.00;11.48;;;;;;;;;;5031647;28;20117;-79
2021/12/18 08:36:08;;;;;;;22.02;12.15;;;;;;;;;;5018836;28;20018;-79
2021/12/18 08:38:34;;;;;;;20.30;11.00;;;;;;;;;;5019148;28;20070;-79
2021/12/18 08:41:00;;;;;;;18.48;10.77;;;;;;;;;;5035422;28;20040;-79
2021/12/18 08:43:26;;;;;;;20.80;11.82;;;;;;;;;;5030739;28;20109;-79
2021/12/18 08:45:52;;;;;;;18.13;11.35;;;;;;;;;;5015756;28;20061;-79
2021/12/18 08:48:18;;;;;;;18.80;10.18;;;;;;;;;;5016401;28;20546;-79
2021/12/18 08:50:44;;;;;;;17.20;9.70;;;;;;;;;;5017880;28;20025;-79
2021/12/18 08:53:10;;;;;;;17.60;10.05;;;;;;;;;;5022290;28;20108;-79
2021/12/18 08:55:36;;;;;;;16.30;10.23;;;;;;;;;;5021027;28;20030;-79
2021/12/18 08:58:03;;;;;;;16.33;8.90;;;;;;;;;;5016372;28;20030;-79
2021/12/18 09:00:30;;;;;;;18.38;9.82;;;;;;;;;;5034609;28;20025;-79
2021/12/18 09:02:57;;;;;;;19.13;9.95;;;;;;;;;;5022172;28;20046;-79
2021/12/18 09:05:23;;;;;;;17.88;10.25;;;;;;;;;;5016571;28;20022;-79
2021/12/18 09:07:50;;;;;;;15.32;9.02;;;;;;;;;;5016957;28;20026;-78
2021/12/18 09:10:16;;;;;;;15.98;8.73;;;;;;;;;;5017276;28;20121;-79
2021/12/18 09:12:43;;;;;;;17.60;9.38;;;;;;;;;;5016350;28;20033;-79
2021/12/18 09:15:09;;;;;;;16.42;9.45;;;;;;;;;;5021443;28;20056;-80
2021/12/18 09:17:36;;;;;;;14.43;8.10;;;;;;;;;;5025077;28;20162;-79
2021/12/18 09:20:02;;;;;;;16.13;8.93;;;;;;;;;;5036815;28;20456;-79
2021/12/18 09:22:28;;;;;;;14.65;8.90;;;;;;;;;;5028783;28;20033;-80
2021/12/18 09:24:54;;;;;;;15.70;8.68;;;;;;;;;;5017657;28;20450;-79
2021/12/18 09:27:22;;;;;;;14.52;7.78;;;;;;;;;;5017314;28;20080;-80
2021/12/18 09:29:48;;;;;;;15.60;8.48;;;;;;;;;;5016745;28;20026;-79
2021/12/18 09:32:14;;;;;;;13.75;7.57;;;;;;;;;;5016336;28;20037;-79
2021/12/18 09:34:40;;;;;;;17.02;8.55;;;;;;;;;;5020220;28;20103;-80
2021/12/18 09:37:07;;;;;;;12.43;7.55;;;;;;;;;;5032991;28;20029;-80
2021/12/18 09:39:33;;;;;;;13.65;8.00;;;;;;;;;;5017536;28;20028;-80
2021/12/18 09:41:59;;;;;;;11.35;7.13;;;;;;;;;;5017958;28;20057;-80
2021/12/18 09:44:29;;;;;;;12.57;6.68;;;;;;;;;;5018251;28;20030;-80
2021/12/18 09:46:55;;;;;;;13.70;8.45;;;;;;;;;;5017493;28;20052;-78
2021/12/18 09:49:21;;;;;;;17.27;9.75;;;;;;;;;;5025747;28;20017;-79
2021/12/18 09:51:48;;;;;;;17.85;10.70;;;;;;;;;;5036521;28;20483;-79
2021/12/18 09:54:14;;;;;;;18.50;10.15;;;;;;;;;;5034012;28;20476;-79
2021/12/18 09:56:41;;;;;;;19.48;10.98;;;;;;;;;;5017888;28;20052;-80
2021/12/18 09:59:07;;;;;;;16.92;10.05;;;;;;;;;;5017865;28;20026;-79
2021/12/18 10:01:34;;;;;;;19.83;11.20;;;;;;;;;;5015742;28;20046;-80
2021/12/18 10:04:02;;;;;;;22.50;12.13;;;;;;;;;;5014358;28;20025;-80
2021/12/18 10:06:44;;;;;;;15.00;9.98;;;;;;;;;;5018504;28;20034;-81
2021/12/18 10:09:13;;;;;;;16.33;9.65;;;;;;;;;;5031289;28;20036;-80
2021/12/18 10:11:50;;;;;;;17.67;9.65;;;;;;;;;;5019482;28;20106;-80
2021/12/18 10:14:17;;;;;;;18.30;10.40;;;;;;;;;;5016111;28;20026;-79
2021/12/18 10:16:46;;;;;;;17.88;11.63;;;;;;;;;;5015933;28;20041;-79
2021/12/18 10:19:28;;;;;;;17.40;10.68;;;;;;;;;;5014948;28;20022;-80
2021/12/18 10:21:59;;;;;;;15.95;9.35;;;;;;;;;;5025031;28;20446;-81
2021/12/18 10:24:25;;;;;;;14.40;8.77;;;;;;;;;;5017927;28;20056;-81
2021/12/18 10:26:51;;;;;;;16.65;9.48;;;;;;;;;;5029830;28;20025;-79
2021/12/18 10:29:24;;;;;;;14.52;9.43;;;;;;;;;;5029350;28;20080;-80
2021/12/18 10:31:50;;;;;;;15.93;9.98;;;;;;;;;;5014890;28;20045;-81
2021/12/18 10:34:29;;;;;;;15.07;9.10;;;;;;;;;;5014758;28;20018;-81
2021/12/18 10:37:27;;;;;;;13.23;7.78;;;;;;;;;;5015873;28;20025;-81
2021/12/18 10:39:53;;;;;;;12.65;7.00;;;;;;;;;;4993136;28;20044;-81
2021/12/18 10:42:19;;;;;;;14.65;8.10;;;;;;;;;;5013230;28;20390;-81
2021/12/18 10:45:06;;;;;;;14.00;8.52;;;;;;;;;;5018107;28;20030;-81
2021/12/18 10:48:02;;;;;;;13.35;7.95;;;;;;;;;;4999274;28;20022;-81
2021/12/18 10:50:42;;;;;;;12.82;7.57;;;;;;;;;;4976524;28;20043;-80
2021/12/18 10:53:11;;;;;;;12.98;7.68;;;;;;;;;;4998125;28;20030;-82
2021/12/18 10:55:57;;;;;;;11.70;7.80;;;;;;;;;;4985814;28;20034;-81
2021/12/18 10:58:27;;;;;;;13.60;7.43;;;;;;;;;;4999934;28;20121;-81
2021/12/18 11:00:57;;;;;;;14.63;7.88;;;;;;;;;;4996915;28;20022;-82
2021/12/18 11:03:26;;;;;;;11.75;7.45;;;;;;;;;;4997662;28;20121;-81
2021/12/18 11:06:01;;;;;;;12.77;7.53;;;;;;;;;;4982985;28;20318;-82
2021/12/18 11:08:27;;;;;;;11.75;7.15;;;;;;;;;;4998048;28;20038;-80
2021/12/18 11:13:58;;;;;;;15.10;7.82;;;;;;;;;;5000273;28;20041;-80
2021/12/18 11:16:25;;;;;;;12.57;7.47;;;;;;;;;;5033777;28;20064;-82
2021/12/18 11:18:52;;;;;;;15.93;7.78;;;;;;;;;;5038838;28;20063;-80
2021/12/18 11:21:18;;;;;;;13.20;8.13;;;;;;;;;;5031446;28;20021;-81
2021/12/18 11:23:47;;;;;;;11.52;7.80;;;;;;;;;;5034981;28;20478;-81
2021/12/18 11:26:14;;;;;;;14.85;8.30;;;;;;;;;;5020743;28;20029;-81
2021/12/18 11:28:42;;;;;;;14.00;8.25;;;;;;;;;;5023917;28;20026;-80
2021/12/18 11:31:09;;;;;;;13.02;8.05;;;;;;;;;;5036590;28;20079;-79
2021/12/18 11:33:35;;;;;;;14.25;7.82;;;;;;;;;;5020814;28;20041;-80
2021/12/18 11:36:04;;;;;;;16.50;8.63;;;;;;;;;;5021650;28;20387;-81
2021/12/18 11:38:31;;;;;;;12.63;7.63;;;;;;;;;;5019540;28;20226;-80
2021/12/18 11:40:57;;;;;;;11.00;6.80;;;;;;;;;;5026010;28;20026;-82
2021/12/18 11:43:29;;;;;;;13.40;8.45;;;;;;;;;;5030019;28;20021;-81
2021/12/18 11:45:55;;;;;;;11.02;6.93;;;;;;;;;;5019857;28;20053;-81
2021/12/18 11:48:21;;;;;;;10.95;6.72;;;;;;;;;;5025645;28;20101;-81
2021/12/18 11:50:48;;;;;;;16.73;8.35;;;;;;;;;;5016818;28;20030;-80
2021/12/18 11:53:21;;;;;;;13.63;7.20;;;;;;;;;;5017089;28;20492;-81
2021/12/18 11:55:50;;;;;;;11.88;6.60;;;;;;;;;;5018926;28;20030;-81
2021/12/18 11:58:17;;;;;;;11.70;7.65;;;;;;;;;;5028155;28;20029;-82
2021/12/18 12:00:47;;;;;;;14.02;8.18;;;;;;;;;;5021308;28;20080;-81
2021/12/18 12:03:25;;;;;;;13.93;7.78;;;;;;;;;;5022792;28;20395;-81
2021/12/18 12:05:51;;;;;;;12.32;7.93;;;;;;;;;;5023731;28;20030;-80
2021/12/18 12:08:38;;;;;;;12.65;7.13;;;;;;;;;;5023136;28;20038;-82
2021/12/18 12:11:23;;;;;;;16.13;8.90;;;;;;;;;;5033629;28;20026;-81
2021/12/18 12:13:54;;;;;;;15.73;8.73;;;;;;;;;;5041521;28;20077;-81
2021/12/18 12:16:40;;;;;;;14.85;8.98;;;;;;;;;;5023893;28;20034;-81
2021/12/18 12:19:07;;;;;;;13.13;8.23;;;;;;;;;;5033910;28;20021;-81
2021/12/18 12:21:45;;;;;;;17.20;9.00;;;;;;;;;;5029687;28;20034;-80
2021/12/18 12:24:12;;;;;;;15.35;8.57;;;;;;;;;;5019952;28;20029;-80
2021/12/18 12:26:38;;;;;;;12.70;7.72;;;;;;;;;;5020895;28;20034;-79
2021/12/18 12:29:05;;;;;;;13.73;8.30;;;;;;;;;;5041264;28;20033;-80
2021/12/18 12:31:31;;;;;;;13.77;8.80;;;;;;;;;;5030230;28;20030;-80
2021/12/18 12:34:16;;;;;;;14.65;8.48;;;;;;;;;;5035066;28;20022;-79
2021/12/18 12:36:45;;;;;;;17.42;9.00;;;;;;;;;;5022354;28;20049;-80
2021/12/18 12:39:13;;;;;;;17.02;9.07;;;;;;;;;;5026949;28;20037;-80
2021/12/18 12:41:49;;;;;;;14.40;8.98;;;;;;;;;;5040236;28;20021;-80
2021/12/18 12:44:29;;;;;;;15.55;10.55;;;;;;;;;;5030092;28;20034;-81
2021/12/18 12:47:14;;;;;;;13.48;8.90;;;;;;;;;;5022221;28;20041;-81
2021/12/18 12:49:41;;;;;;;14.25;8.43;;;;;;;;;;5021935;28;21379;-80
2021/12/18 12:52:16;;;;;;;14.85;8.80;;;;;;;;;;5022258;28;20030;-80
2021/12/18 12:55:03;;;;;;;16.67;8.77;;;;;;;;;;5017469;28;20023;-82
2021/12/18 12:57:30;;;;;;;15.30;8.38;;;;;;;;;;5004481;28;20384;-79
2021/12/18 12:59:59;;;;;;;21.98;11.23;;;;;;;;;;5037883;28;20062;-80
2021/12/18 13:02:36;;;;;;;20.38;10.98;;;;;;;;;;5026556;28;20435;-80
2021/12/18 13:05:04;;;;;;;17.42;9.90;;;;;;;;;;5022484;28;20048;-79
2021/12/18 13:07:30;;;;;;;16.05;9.80;;;;;;;;;;5026700;28;20163;-80
2021/12/18 13:09:56;;;;;;;14.45;9.32;;;;;;;;;;5021390;28;20056;-80
2021/12/18 13:12:23;;;;;;;12.55;8.80;;;;;;;;;;5020309;28;20045;-80
2021/12/18 13:14:49;;;;;;;15.30;8.85;;;;;;;;;;5027981;28;20029;-78
2021/12/18 13:17:22;;;;;;;16.00;9.70;;;;;;;;;;5033443;28;20026;-80
2021/12/18 13:19:54;;;;;;;17.88;9.80;;;;;;;;;;5040401;28;20029;-80
2021/12/18 13:22:27;;;;;;;16.67;10.43;;;;;;;;;;5023056;28;20022;-79
2021/12/18 13:25:02;;;;;;;14.52;8.77;;;;;;;;;;5019380;28;20045;-79
2021/12/18 13:27:28;;;;;;;15.43;9.73;;;;;;;;;;5021503;28;20037;-80
2021/12/18 13:30:09;;;;;;;15.23;8.90;;;;;;;;;;5021225;28;20026;-80
2021/12/18 13:32:35;;;;;;;15.55;9.68;;;;;;;;;;5025690;28;20089;-80
2021/12/18 13:35:02;;;;;;;13.85;8.82;;;;;;;;;;5021378;28;20053;-79
2021/12/18 13:37:28;;;;;;;14.75;8.95;;;;;;;;;;5012193;28;20050;-80
2021/12/18 13:39:54;;;;;;;15.13;9.00;;;;;;;;;;5018157;28;20388;-80
2021/12/18 13:42:21;;;;;;;17.50;10.00;;;;;;;;;;5020075;28;20066;-79
2021/12/18 13:44:49;;;;;;;15.80;9.00;;;;;;;;;;5029761;28;20030;-79
2021/12/18 13:47:25;;;;;;;13.70;9.07;;;;;;;;;;5018230;28;20510;-81
2021/12/18 13:49:59;;;;;;;15.50;9.60;;;;;;;;;;5000812;28;20048;-79
2021/12/18 13:52:31;;;;;;;13.82;9.30;;;;;;;;;;5038043;28;20044;-78
2021/12/18 13:54:58;;;;;;;15.00;9.05;;;;;;;;;;5041299;28;20029;-78
2021/12/18 13:57:24;;;;;;;13.32;8.73;;;;;;;;;;5029890;28;20102;-79
2021/12/18 13:59:57;;;;;;;13.00;8.43;;;;;;;;;;5022165;28;20022;-78
2021/12/18 14:02:23;;;;;;;14.35;8.40;;;;;;;;;;5018860;28;20071;-78
2021/12/18 14:04:49;;;;;;;16.63;9.00;;;;;;;;;;5019434;28;20378;-79
2021/12/18 14:07:15;;;;;;;13.55;8.15;;;;;;;;;;5015592;28;20407;-79
2021/12/18 14:09:41;;;;;;;15.60;8.95;;;;;;;;;;5016364;28;20029;-79
2021/12/18 14:12:11;;;;;;;12.73;8.27;;;;;;;;;;5027619;28;20045;-79
2021/12/18 14:14:44;;;;;;;15.18;8.27;;;;;;;;;;5017027;28;20018;-79
2021/12/18 14:17:12;;;;;;;14.77;8.43;;;;;;;;;;5016874;28;20506;-80
2021/12/18 14:19:39;;;;;;;16.45;9.73;;;;;;;;;;5033491;28;20091;-79
2021/12/18 14:22:07;;;;;;;14.05;8.95;;;;;;;;;;5022154;28;20445;-80
2021/12/18 14:24:33;;;;;;;13.63;8.70;;;;;;;;;;5024043;28;20029;-79
2021/12/18 14:27:03;;;;;;;15.00;8.75;;;;;;;;;;5025266;28;20404;-79
2021/12/18 14:29:31;;;;;;;13.60;8.05;;;;;;;;;;5017062;28;20085;-80
2021/12/18 14:31:58;;;;;;;13.00;7.72;;;;;;;;;;5017765;28;20030;-79
2021/12/18 14:34:26;;;;;;;12.55;7.55;;;;;;;;;;5021902;28;20022;-78
2021/12/18 14:36:53;;;;;;;12.77;7.88;;;;;;;;;;5022635;28;20480;-78
2021/12/18 14:39:24;;;;;;;15.32;8.25;;;;;;;;;;5039065;28;20088;-78
2021/12/18 14:41:58;;;;;;;13.57;7.57;;;;;;;;;;5037023;28;20395;-79
2021/12/18 14:44:25;;;;;;;15.73;8.50;;;;;;;;;;5035775;28;20025;-79
2021/12/18 14:47:08;;;;;;;12.05;7.40;;;;;;;;;;5023728;28;20030;-78
2021/12/18 14:49:34;;;;;;;;;;;;;;;;;;5016147;28;20030;-79
2021/12/18 14:52:05;;;;;;;11.02;7.18;;;;;;;;;;5015583;28;19913;-79
2021/12/18 14:54:46;;;;;;;14.30;7.75;;;;;;;;;;5014558;28;20021;-79
2021/12/18 14:57:24;;;;;;;16.85;8.45;;;;;;;;;;5024718;28;20052;-81
2021/12/18 15:00:09;;;;;;;16.33;9.38;;;;;;;;;;5033607;28;20029;-78
2021/12/18 15:02:52;;;;;;;14.88;8.93;;;;;;;;;;5035364;28;20060;-78
2021/12/18 15:05:18;;;;;;;12.13;7.57;;;;;;;;;;5022309;28;20030;-79
2021/12/18 15:07:55;;;;;;;14.20;8.52;;;;;;;;;;5015538;28;20088;-79
2021/12/18 15:10:21;;;;;;;15.32;8.93;;;;;;;;;;5015726;28;20053;-78
2021/12/18 15:12:47;;;;;;;13.95;9.00;;;;;;;;;;5015211;28;20439;-79
2021/12/18 15:15:14;;;;;;;16.23;9.43;;;;;;;;;;5014091;28;20510;-79
2021/12/18 15:17:40;;;;;;;14.70;9.43;;;;;;;;;;5013799;28;20034;-79
2021/12/18 15:20:06;;;;;;;18.92;9.45;;;;;;;;;;5015347;28;20044;-79
2021/12/18 15:22:32;;;;;;;13.95;8.60;;;;;;;;;;5015333;28;20117;-79
2021/12/18 15:24:58;;;;;;;12.75;7.60;;;;;;;;;;5014824;28;20045;-79
2021/12/18 15:27:24;;;;;;;14.65;8.50;;;;;;;;;;5015164;28;20034;-79